createdAt,value
2022-11-11T00:02:56.042Z,102357.38
2022-11-11T00:06:17.572Z,102356.09
2022-11-11T00:09:39.013Z,102353.81
2022-11-11T00:13:05.275Z,102359.41
2022-11-11T00:16:46.621Z,102353.72
2022-11-11T00:20:31.201Z,102349.25
2022-11-11T00:24:13.945Z,102363.75
2022-11-11T00:27:36.492Z,102366.88
2022-11-11T00:31:12.040Z,102378.78
2022-11-11T00:34:33.349Z,102377.56
2022-11-11T00:37:54.373Z,102381.75
2022-11-11T00:41:18.415Z,102372.84
2022-11-11T00:44:39.649Z,102363.66
2022-11-11T00:48:19.222Z,102371.63
2022-11-11T00:51:41.407Z,102366.88
2022-11-11T00:55:03.046Z,102371.63
2022-11-11T00:58:25.243Z,102375.88
2022-11-11T01:01:46.825Z,102369.66
2022-11-11T01:05:08.364Z,102368.84
2022-11-11T01:08:31.127Z,102376.38
2022-11-11T01:11:52.387Z,102377.63
2022-11-11T01:15:13.616Z,102379.84
2022-11-11T01:18:35.160Z,102376.63
2022-11-11T01:21:57.053Z,102374.94
2022-11-11T01:25:18.628Z,102381.59
2022-11-11T01:28:40.753Z,102381.03
2022-11-11T01:32:02.044Z,102368.66
2022-11-11T01:35:23.569Z,102373.03
2022-11-11T01:38:50.078Z,102369.41
2022-11-11T01:42:11.881Z,102376.47
2022-11-11T01:45:56.105Z,102366.09
2022-11-11T01:49:36.491Z,102365.25
2022-11-11T01:52:57.870Z,102359.69
2022-11-11T01:56:19.813Z,102361.22
2022-11-11T01:59:45.122Z,102357.72
2022-11-11T02:03:09.749Z,102349.94
2022-11-11T02:06:32.559Z,102350.63
2022-11-11T02:09:56.416Z,102348.94
2022-11-11T02:13:36.520Z,102352.84
2022-11-11T02:16:58.769Z,102358.28
2022-11-11T02:20:26.499Z,102358.84
2022-11-11T02:24:06.301Z,102354.00
2022-11-11T02:27:31.149Z,102357.00
2022-11-11T02:30:52.707Z,102350.63
2022-11-11T02:34:14.360Z,102354.75
2022-11-11T02:37:35.770Z,102356.63
2022-11-11T02:41:15.787Z,102370.56
2022-11-11T02:44:38.177Z,102365.56
2022-11-11T02:47:59.717Z,102374.50
2022-11-11T02:51:20.917Z,102377.78
2022-11-11T02:54:43.908Z,102376.09
2022-11-11T02:58:05.185Z,102378.16
2022-11-11T03:01:26.651Z,102381.88
2022-11-11T03:04:47.774Z,102391.19
2022-11-11T03:08:09.407Z,102396.88
2022-11-11T03:11:31.351Z,102387.00
2022-11-11T03:14:52.829Z,102383.56
2022-11-11T03:18:14.382Z,102382.25
2022-11-11T03:25:57.066Z,102389.69
2022-11-11T03:29:19.471Z,102396.78
2022-11-11T03:32:41.117Z,102405.91
2022-11-11T03:36:02.358Z,102398.16
2022-11-11T03:39:28.270Z,102399.72
2022-11-11T03:42:49.973Z,102404.53
2022-11-11T03:46:11.541Z,102404.78
2022-11-11T03:49:32.937Z,102403.09
2022-11-11T03:52:54.197Z,102401.69
2022-11-11T03:56:15.665Z,102398.09
2022-11-11T03:59:36.768Z,102407.19
2022-11-11T04:03:29.542Z,102401.59
2022-11-11T04:07:09.460Z,102404.50
2022-11-11T04:10:32.283Z,102408.06
2022-11-11T04:14:14.351Z,102401.56
2022-11-11T04:17:35.229Z,102405.94
2022-11-11T04:21:14.661Z,102412.56
2022-11-11T04:24:55.202Z,102418.47
2022-11-11T04:28:35.332Z,102433.81
2022-11-11T04:32:16.092Z,102434.81
2022-11-11T04:35:37.175Z,102441.16
2022-11-11T04:39:17.098Z,102443.09
2022-11-11T04:42:41.810Z,102454.28
2022-11-11T04:46:03.369Z,102458.25
2022-11-11T04:49:24.986Z,102462.88
2022-11-11T04:52:46.504Z,102447.13
2022-11-11T04:56:27.609Z,102455.00
2022-11-11T04:59:48.586Z,102449.75
2022-11-11T05:03:24.081Z,102459.28
2022-11-11T05:07:04.699Z,102454.63
2022-11-11T05:10:32.834Z,102450.72
2022-11-11T05:14:14.267Z,102447.13
2022-11-11T05:17:54.405Z,102461.44
2022-11-11T05:21:23.741Z,102451.91
2022-11-11T05:25:03.775Z,102461.69
2022-11-11T05:28:24.756Z,102468.03
2022-11-11T05:31:51.317Z,102463.63
2022-11-11T05:35:14.211Z,102477.00
2022-11-11T05:38:35.532Z,102486.06
2022-11-11T05:41:56.657Z,102488.69
2022-11-11T05:45:18.114Z,102495.25
2022-11-11T05:48:59.545Z,102506.34
2022-11-11T05:52:20.850Z,102499.78
2022-11-11T05:55:42.136Z,102504.44
2022-11-11T05:59:03.601Z,102510.03
2022-11-11T06:02:24.743Z,102506.78
2022-11-11T06:05:46.038Z,102509.19
2022-11-11T06:09:07.597Z,102513.16
2022-11-11T06:12:49.230Z,102521.75
2022-11-11T06:16:11.101Z,102532.63
2022-11-11T06:19:32.567Z,102540.84
2022-11-11T06:22:57.084Z,102543.44
2022-11-11T06:26:18.456Z,102543.63
2022-11-11T06:29:40.074Z,102538.34
2022-11-11T06:33:01.896Z,102547.91
2022-11-11T06:36:23.340Z,102558.97
2022-11-11T06:39:44.386Z,102556.13
2022-11-11T06:43:05.462Z,102558.91
2022-11-11T06:46:27.355Z,102556.31
2022-11-11T06:49:48.880Z,102566.78
2022-11-11T06:57:17.054Z,102583.38
2022-11-11T07:00:40.044Z,102581.66
2022-11-11T07:04:05.832Z,102588.44
2022-11-11T07:07:28.557Z,102582.16
2022-11-11T07:11:12.782Z,102571.19
2022-11-11T07:14:55.050Z,102572.34
2022-11-11T07:18:31.705Z,102567.44
2022-11-11T07:21:53.623Z,102565.47
2022-11-11T07:25:27.053Z,102569.47
2022-11-11T07:28:51.490Z,102562.63
2022-11-11T07:32:13.418Z,102558.41
2022-11-11T07:35:34.742Z,102565.47
2022-11-11T07:38:56.104Z,102577.75
2022-11-11T07:42:31.065Z,102583.34
2022-11-11T07:45:52.819Z,102592.66
2022-11-11T07:49:14.286Z,102600.44
2022-11-11T07:52:37.647Z,102597.22
2022-11-11T07:55:59.288Z,102599.59
2022-11-11T07:59:20.883Z,102590.72
2022-11-11T08:02:48.008Z,102595.13
2022-11-11T08:06:09.336Z,102589.53
2022-11-11T08:09:31.820Z,102590.53
2022-11-11T08:13:13.713Z,102586.78
2022-11-11T08:16:35.339Z,102597.19
2022-11-11T08:19:56.239Z,102595.31
2022-11-11T08:23:49.748Z,102590.47
2022-11-11T08:27:03.668Z,102585.56
2022-11-11T08:30:26.343Z,102595.16
2022-11-11T08:33:48.967Z,102595.34
2022-11-11T08:37:10.580Z,102599.47
2022-11-11T08:40:31.609Z,102592.22
2022-11-11T08:43:55.513Z,102602.38
2022-11-11T08:47:16.860Z,102611.66
2022-11-11T08:50:39.519Z,102621.44
2022-11-11T08:54:01.439Z,102610.75
2022-11-11T08:57:29.707Z,102616.22
2022-11-11T09:00:59.626Z,102620.78
2022-11-11T09:08:07.037Z,102612.97
2022-11-11T09:11:28.700Z,102616.06
2022-11-11T09:14:50.361Z,102619.19
2022-11-11T09:18:12.115Z,102616.94
2022-11-11T09:21:33.228Z,102618.94
2022-11-11T09:24:54.698Z,102616.09
2022-11-11T09:28:15.824Z,102614.44
2022-11-11T09:31:44.580Z,102609.41
2022-11-11T09:35:07.250Z,102610.34
2022-11-11T09:38:28.776Z,102605.50
2022-11-11T09:42:17.623Z,102594.59
2022-11-11T09:45:43.292Z,102590.75
2022-11-11T09:49:28.577Z,102581.47
2022-11-11T09:53:25.878Z,102577.59
2022-11-11T09:56:47.773Z,102568.84
2022-11-11T10:00:24.820Z,102582.50
2022-11-11T10:03:51.919Z,102581.19
2022-11-11T10:07:23.169Z,102568.13
2022-11-11T10:10:46.507Z,102578.34
2022-11-11T10:14:08.080Z,102566.44
2022-11-11T10:17:58.381Z,102566.94
2022-11-11T10:22:06.225Z,102565.56
2022-11-11T10:25:26.731Z,102568.28
2022-11-11T10:28:50.818Z,102561.03
2022-11-11T10:32:20.726Z,102548.66
2022-11-11T10:35:42.962Z,102550.31
2022-11-11T10:39:06.015Z,102548.56
2022-11-11T10:42:27.204Z,102540.03
2022-11-11T10:46:01.210Z,102554.03
2022-11-11T10:49:26.189Z,102546.78
2022-11-11T10:53:11.769Z,102542.25
2022-11-11T10:56:38.852Z,102549.84
2022-11-11T11:00:13.203Z,102538.19
2022-11-11T11:03:41.076Z,102537.63
2022-11-11T11:07:06.262Z,102530.63
2022-11-11T11:10:37.887Z,102526.50
2022-11-11T11:14:03.488Z,102525.88
2022-11-11T11:17:35.588Z,102514.72
2022-11-11T11:21:03.558Z,102505.03
2022-11-11T11:24:28.888Z,102509.28
2022-11-11T11:27:52.278Z,102498.00
2022-11-11T11:31:13.353Z,102503.25
2022-11-11T11:34:46.729Z,102495.78
2022-11-11T11:38:10.248Z,102492.44
2022-11-11T11:41:58.080Z,102484.63
2022-11-11T11:45:31.220Z,102494.69
2022-11-11T11:49:16.831Z,102493.63
2022-11-11T11:52:50.741Z,102491.03
2022-11-11T11:56:12.199Z,102481.22
2022-11-11T11:59:54.155Z,102473.03
2022-11-11T12:03:37.501Z,102481.03
2022-11-11T12:07:05.033Z,102469.81
2022-11-11T12:10:47.551Z,102472.44
2022-11-11T12:14:27.596Z,102463.50
2022-11-11T12:18:25.753Z,102460.66
2022-11-11T12:22:12.446Z,102452.22
2022-11-11T12:25:48.341Z,102441.16
2022-11-11T12:29:12.819Z,102454.31
2022-11-11T12:33:01.329Z,102452.09
2022-11-11T12:36:51.908Z,102447.22
2022-11-11T12:40:34.628Z,102448.03
2022-11-11T12:44:11.094Z,102443.94
2022-11-11T12:47:51.057Z,102460.44
2022-11-11T12:51:31.574Z,102455.09
2022-11-11T12:55:08.525Z,102450.00
2022-11-11T12:58:48.291Z,102453.38
2022-11-11T13:02:43.639Z,102456.28
2022-11-11T13:06:28.106Z,102455.00
2022-11-11T13:09:57.558Z,102455.50
2022-11-11T13:13:30.068Z,102466.88
2022-11-11T13:16:53.072Z,102460.00
2022-11-11T13:20:51.897Z,102462.13
2022-11-11T13:24:16.187Z,102482.72
2022-11-11T13:27:50.738Z,102491.13
2022-11-11T13:31:15.782Z,102494.88
2022-11-11T13:34:38.005Z,102491.63
2022-11-11T13:37:59.222Z,102492.03
2022-11-11T13:41:30.700Z,102495.28
2022-11-11T13:45:00.944Z,102495.56
2022-11-11T13:48:25.651Z,102496.06
2022-11-11T13:51:57.678Z,102492.38
2022-11-11T13:55:31.099Z,102495.66
2022-11-11T13:58:54.784Z,102498.50
2022-11-11T14:02:19.158Z,102489.13
2022-11-11T14:05:40.474Z,102489.13
2022-11-11T14:09:02.397Z,102489.31
2022-11-11T14:12:36.688Z,102485.81
2022-11-11T14:15:57.625Z,102468.94
2022-11-11T14:19:18.627Z,102466.56
2022-11-11T14:22:40.141Z,102474.50
2022-11-11T14:26:11.382Z,102491.75
2022-11-11T14:29:37.903Z,102485.28
2022-11-11T14:33:19.387Z,102497.25
2022-11-11T14:36:58.004Z,102491.88
2022-11-11T14:40:30.905Z,102492.97
2022-11-11T14:43:52.527Z,102469.34
2022-11-11T14:47:13.803Z,102480.56
2022-11-11T14:50:35.281Z,102478.56
2022-11-11T14:53:57.499Z,102468.53
2022-11-11T14:57:25.976Z,102473.84
2022-11-11T15:01:08.744Z,102478.59
2022-11-11T15:04:38.033Z,102479.69
2022-11-11T15:08:14.939Z,102480.91
2022-11-11T15:12:05.559Z,102473.50
2022-11-11T15:15:50.380Z,102465.09
2022-11-11T15:19:26.940Z,102468.13
2022-11-11T15:23:15.280Z,102468.53
2022-11-11T15:26:49.910Z,102471.94
2022-11-11T15:30:18.798Z,102482.50
2022-11-11T15:34:09.317Z,102483.84
2022-11-11T15:37:31.358Z,102484.09
2022-11-11T15:41:03.583Z,102488.28
2022-11-11T15:44:29.658Z,102473.31
2022-11-11T15:47:53.517Z,102476.34
2022-11-11T15:51:17.237Z,102486.69
2022-11-11T15:54:39.374Z,102474.75
2022-11-11T15:58:29.455Z,102473.25
2022-11-11T16:01:57.647Z,102481.06
2022-11-11T16:05:33.867Z,102481.06
2022-11-11T16:08:58.540Z,102494.19
2022-11-11T16:12:47.389Z,102482.72
2022-11-11T16:16:59.185Z,102490.88
2022-11-11T16:20:29.625Z,102497.69
2022-11-11T16:23:54.835Z,102498.34
2022-11-11T16:27:25.632Z,102493.25
2022-11-11T16:30:47.158Z,102502.03
2022-11-11T16:34:28.426Z,102491.41
2022-11-11T16:37:54.816Z,102478.13
2022-11-11T16:41:32.143Z,102494.06
2022-11-11T16:45:02.376Z,102484.13
2022-11-11T16:48:34.466Z,102490.91
2022-11-11T16:51:56.425Z,102487.25
2022-11-11T16:55:20.727Z,102484.72
2022-11-11T16:58:43.950Z,102477.44
2022-11-11T17:02:16.853Z,102483.41
2022-11-11T17:05:59.020Z,102483.88
2022-11-11T17:09:34.442Z,102493.16
2022-11-11T17:12:55.646Z,102492.66
2022-11-11T17:16:16.995Z,102491.81
2022-11-11T17:19:38.585Z,102488.00
2022-11-11T17:23:00.159Z,102484.34
2022-11-11T17:26:21.588Z,102484.63
2022-11-11T17:29:42.765Z,102488.25
2022-11-11T17:33:04.759Z,102483.19
2022-11-11T17:36:26.105Z,102478.06
2022-11-11T17:39:47.308Z,102477.16
2022-11-11T17:43:09.120Z,102479.63
2022-11-11T17:46:30.502Z,102485.47
2022-11-11T17:49:57.037Z,102471.88
2022-11-11T17:53:18.824Z,102468.66
2022-11-11T17:56:40.056Z,102475.22
2022-11-11T18:00:01.293Z,102476.97
2022-11-11T18:03:22.783Z,102472.06
2022-11-11T18:06:44.308Z,102476.56
2022-11-11T18:11:25.500Z,102482.63
2022-11-11T18:14:46.699Z,102480.78
2022-11-11T18:18:08.413Z,102488.19
2022-11-11T18:21:29.779Z,102481.19
2022-11-11T18:24:50.970Z,102489.41
2022-11-11T18:28:12.287Z,102485.47
2022-11-11T18:31:34.253Z,102483.38
2022-11-11T18:34:55.486Z,102484.69
2022-11-11T18:38:16.663Z,102495.56
2022-11-11T18:41:38.204Z,102490.56
2022-11-11T18:44:59.797Z,102503.28
2022-11-11T18:48:21.042Z,102513.75
2022-11-11T18:51:42.660Z,102502.34
2022-11-11T18:55:05.018Z,102498.88
2022-11-11T18:58:26.492Z,102492.94
2022-11-11T19:01:53.219Z,102498.41
2022-11-11T19:05:16.079Z,102501.09
2022-11-11T19:08:38.220Z,102508.03
2022-11-11T19:11:59.877Z,102500.28
2022-11-11T19:15:21.084Z,102507.66
2022-11-11T19:18:42.993Z,102501.28
2022-11-11T19:22:04.601Z,102505.63
2022-11-11T19:25:25.784Z,102511.31
2022-11-11T19:28:47.628Z,102511.91
2022-11-11T19:32:09.047Z,102504.94
2022-11-11T19:35:30.478Z,102522.72
2022-11-11T19:38:51.745Z,102522.31
2022-11-11T19:42:12.971Z,102522.56
2022-11-11T19:45:36.898Z,102509.09
2022-11-11T19:49:00.509Z,102506.31
2022-11-11T19:52:22.327Z,102501.88
2022-11-11T19:55:43.983Z,102518.06
2022-11-11T19:59:06.094Z,102516.25
2022-11-11T20:02:28.361Z,102525.81
2022-11-11T20:05:50.348Z,102531.63
2022-11-11T20:09:11.514Z,102531.91
2022-11-11T20:12:33.819Z,102530.38
2022-11-11T20:15:56.196Z,102518.59
2022-11-11T20:19:17.744Z,102510.53
2022-11-11T20:22:38.797Z,102513.28
2022-11-11T20:26:07.404Z,102520.78
2022-11-11T20:29:29.436Z,102527.97
2022-11-11T20:32:50.581Z,102546.09
2022-11-11T20:36:13.834Z,102545.22
2022-11-11T20:39:35.354Z,102542.28
2022-11-11T20:42:59.578Z,102536.81
2022-11-11T20:46:20.948Z,102533.59
2022-11-11T20:49:42.689Z,102536.22
2022-11-11T20:53:04.218Z,102538.28
2022-11-11T20:56:26.585Z,102536.72
2022-11-11T20:59:47.607Z,102541.31
2022-11-11T21:03:09.079Z,102530.50
2022-11-11T21:06:31.157Z,102536.88
2022-11-11T21:09:52.938Z,102527.22
2022-11-11T21:13:14.427Z,102527.94
2022-11-11T21:16:35.804Z,102521.38
2022-11-11T21:19:58.129Z,102514.91
2022-11-11T21:23:19.449Z,102519.97
2022-11-11T21:26:41.053Z,102515.19
2022-11-11T21:30:02.770Z,102517.91
2022-11-11T21:33:24.429Z,102513.19
2022-11-11T21:36:45.977Z,102510.47
2022-11-11T21:40:07.880Z,102502.41
2022-11-11T21:43:29.578Z,102496.38
2022-11-11T21:46:51.219Z,102497.81
2022-11-11T21:50:12.360Z,102493.06
2022-11-11T21:53:34.800Z,102498.91
2022-11-11T21:56:56.068Z,102491.59
2022-11-11T22:00:18.047Z,102500.00
2022-11-11T22:03:41.408Z,102490.97
2022-11-11T22:07:02.738Z,102491.91
2022-11-11T22:10:24.409Z,102498.13
2022-11-11T22:13:45.866Z,102487.69
2022-11-11T22:17:06.717Z,102487.06
2022-11-11T22:20:27.949Z,102486.59
2022-11-11T22:23:52.079Z,102497.63
2022-11-11T22:27:13.244Z,102483.19
2022-11-11T22:30:35.006Z,102483.25
2022-11-11T22:34:00.195Z,102479.31
2022-11-11T22:37:22.951Z,102466.66
2022-11-11T22:40:44.147Z,102477.56
2022-11-11T22:44:05.837Z,102467.25
2022-11-11T22:47:27.243Z,102466.13
2022-11-11T22:50:48.568Z,102466.97
2022-11-11T22:54:18.014Z,102465.66
2022-11-11T22:57:39.151Z,102471.50
2022-11-11T23:01:07.727Z,102467.66
2022-11-11T23:04:29.172Z,102462.31
2022-11-11T23:07:50.669Z,102468.41
2022-11-11T23:11:14.938Z,102459.81
2022-11-11T23:14:36.534Z,102460.19
2022-11-11T23:18:00.856Z,102459.50
2022-11-11T23:21:24.311Z,102467.84
2022-11-11T23:24:45.702Z,102465.34
2022-11-11T23:28:06.835Z,102460.03
2022-11-11T23:31:30.673Z,102452.59
2022-11-11T23:34:52.085Z,102461.47
2022-11-11T23:38:13.384Z,102453.78
2022-11-11T23:41:34.857Z,102450.91
2022-11-11T23:44:55.969Z,102446.38
2022-11-11T23:48:17.134Z,102437.53
2022-11-11T23:51:38.542Z,102441.25
2022-11-11T23:55:00.213Z,102427.03
2022-11-11T23:58:21.406Z,102434.66
